createdAt,value
2022-12-08T00:02:58.266Z,17.52
2022-12-08T00:06:22.217Z,17.05
2022-12-08T00:09:40.846Z,22.48
2022-12-08T00:12:45.630Z,16.80
2022-12-08T00:15:49.252Z,17.35
2022-12-08T00:18:52.663Z,16.12
2022-12-08T00:21:56.330Z,16.50
2022-12-08T00:24:59.600Z,18.48
2022-12-08T00:28:02.621Z,17.00
2022-12-08T00:31:11.277Z,17.55
2022-12-08T00:34:15.561Z,14.77
2022-12-08T00:37:18.790Z,17.20
2022-12-08T00:40:21.740Z,16.45
2022-12-08T00:43:24.910Z,18.35
2022-12-08T00:46:27.962Z,18.58
2022-12-08T00:49:31.372Z,15.63
2022-12-08T00:52:34.353Z,12.93
2022-12-08T00:55:38.546Z,14.73
2022-12-08T00:58:41.633Z,13.23
2022-12-08T01:01:46.215Z,13.55
2022-12-08T01:04:51.070Z,15.32
2022-12-08T01:07:54.360Z,16.12
2022-12-08T01:10:57.508Z,15.20
2022-12-08T01:14:00.873Z,13.25
2022-12-08T01:17:05.023Z,15.25
2022-12-08T01:20:09.000Z,13.90
2022-12-08T01:23:11.891Z,14.48
2022-12-08T01:26:16.854Z,16.10
2022-12-08T01:29:19.868Z,14.35
2022-12-08T01:32:23.152Z,14.23
2022-12-08T01:35:26.221Z,15.13
2022-12-08T01:38:29.573Z,14.15
2022-12-08T01:41:34.381Z,12.00
2022-12-08T01:44:37.683Z,16.00
2022-12-08T01:47:43.610Z,16.40
2022-12-08T01:50:48.375Z,18.37
2022-12-08T01:53:51.883Z,16.37
2022-12-08T01:57:05.860Z,15.70
2022-12-08T02:00:12.697Z,15.65
2022-12-08T02:03:30.174Z,16.45
2022-12-08T02:06:38.186Z,14.55
2022-12-08T02:09:42.269Z,15.25
2022-12-08T02:12:45.359Z,16.98
2022-12-08T02:15:58.774Z,15.10
2022-12-08T02:19:31.375Z,14.70
2022-12-08T02:22:56.443Z,13.98
2022-12-08T02:26:11.967Z,13.85
2022-12-08T02:29:36.683Z,17.23
2022-12-08T02:32:48.816Z,13.65
2022-12-08T02:36:02.420Z,12.50
2022-12-08T02:39:40.164Z,16.05
2022-12-08T02:42:46.803Z,15.18
2022-12-08T02:45:54.346Z,16.42
2022-12-08T02:48:58.295Z,14.68
2022-12-08T02:52:10.712Z,15.27
2022-12-08T02:55:25.003Z,14.52
2022-12-08T02:58:46.518Z,13.55
2022-12-08T03:02:20.864Z,10.68
2022-12-08T03:06:01.449Z,10.00
2022-12-08T03:09:13.674Z,11.60
2022-12-08T03:12:37.614Z,10.90
2022-12-08T03:15:42.297Z,11.80
2022-12-08T03:18:58.794Z,9.52
2022-12-08T03:22:04.877Z,10.68
2022-12-08T03:25:10.060Z,10.75
2022-12-08T03:28:13.418Z,9.32
2022-12-08T03:31:19.061Z,9.75
2022-12-08T03:34:26.977Z,10.32
2022-12-08T03:37:30.306Z,11.43
2022-12-08T03:40:34.615Z,8.93
2022-12-08T03:43:37.555Z,8.10
2022-12-08T03:46:40.862Z,8.00
2022-12-08T03:49:44.055Z,9.95
2022-12-08T03:52:47.536Z,9.77
2022-12-08T03:55:50.681Z,9.27
2022-12-08T03:58:55.065Z,8.57
2022-12-08T04:01:58.115Z,10.13
2022-12-08T04:05:01.382Z,9.60
2022-12-08T04:08:04.698Z,7.47
2022-12-08T04:11:08.358Z,6.87
2022-12-08T04:14:11.535Z,8.45
2022-12-08T04:17:15.193Z,7.60
2022-12-08T04:20:18.136Z,8.48
2022-12-08T04:23:22.358Z,7.70
2022-12-08T04:26:25.294Z,6.90
2022-12-08T04:29:29.422Z,7.60
2022-12-08T04:32:32.496Z,7.22
2022-12-08T04:35:36.061Z,8.98
2022-12-08T04:38:39.242Z,10.02
2022-12-08T04:41:42.827Z,8.90
2022-12-08T04:44:45.732Z,11.85
2022-12-08T04:47:48.962Z,9.85
2022-12-08T04:50:51.692Z,11.23
2022-12-08T04:53:54.657Z,11.82
2022-12-08T04:56:57.399Z,11.73
2022-12-08T05:00:00.603Z,9.82
2022-12-08T05:03:04.363Z,10.50
2022-12-08T05:06:07.777Z,10.90
2022-12-08T05:09:11.122Z,11.32
2022-12-08T05:12:14.547Z,10.70
2022-12-08T05:15:17.592Z,14.75
2022-12-08T05:18:21.168Z,13.57
2022-12-08T05:21:24.206Z,11.27
2022-12-08T05:24:27.446Z,11.18
2022-12-08T05:27:30.412Z,13.02
2022-12-08T05:30:33.529Z,12.90
2022-12-08T05:33:36.463Z,12.52
2022-12-08T05:36:39.768Z,10.77
2022-12-08T05:39:42.732Z,13.10
2022-12-08T05:42:47.046Z,15.68
2022-12-08T05:45:50.193Z,13.35
2022-12-08T05:48:53.468Z,11.70
2022-12-08T05:51:56.394Z,12.68
2022-12-08T05:55:00.014Z,11.32
2022-12-08T05:58:07.661Z,11.05
2022-12-08T06:01:37.853Z,12.88
2022-12-08T06:04:41.290Z,12.32
2022-12-08T06:07:44.746Z,11.23
2022-12-08T06:10:48.717Z,11.12
2022-12-08T06:13:52.181Z,12.48
2022-12-08T06:16:55.508Z,11.75
2022-12-08T06:19:59.584Z,10.70
2022-12-08T06:23:04.213Z,11.02
2022-12-08T06:26:13.400Z,11.80
2022-12-08T06:29:16.811Z,9.88
2022-12-08T06:32:27.124Z,11.35
2022-12-08T06:35:30.762Z,10.27
2022-12-08T06:38:35.665Z,11.68
2022-12-08T06:42:00.247Z,12.55
2022-12-08T06:45:03.559Z,11.15
2022-12-08T06:48:07.067Z,10.55
2022-12-08T06:51:17.958Z,12.45
2022-12-08T06:54:21.217Z,10.38
2022-12-08T06:57:24.728Z,11.20
2022-12-08T07:00:29.179Z,11.02
2022-12-08T07:03:32.377Z,11.12
2022-12-08T07:06:37.276Z,11.43
2022-12-08T07:09:40.451Z,10.03
2022-12-08T07:12:43.824Z,11.15
2022-12-08T07:15:46.857Z,13.50
2022-12-08T07:18:50.382Z,11.82
2022-12-08T07:21:53.410Z,12.02
2022-12-08T07:24:57.065Z,11.12
2022-12-08T07:28:00.147Z,10.88
2022-12-08T07:31:05.216Z,9.00
2022-12-08T07:34:11.507Z,9.10
2022-12-08T07:37:15.314Z,8.68
2022-12-08T07:40:18.490Z,13.50
2022-12-08T07:43:22.564Z,14.85
2022-12-08T07:46:26.629Z,11.07
2022-12-08T07:52:35.388Z,13.38
2022-12-08T07:55:42.850Z,11.85
2022-12-08T07:58:47.108Z,9.60
2022-12-08T08:02:06.542Z,11.90
2022-12-08T08:05:15.244Z,17.23
2022-12-08T08:08:18.551Z,18.75
2022-12-08T08:11:22.302Z,37.35
2022-12-08T08:14:26.509Z,42.05
2022-12-08T08:17:30.294Z,50.27
2022-12-08T08:20:33.561Z,48.20
2022-12-08T08:23:36.829Z,46.08
2022-12-08T08:26:40.210Z,45.25
2022-12-08T08:29:43.560Z,39.45
2022-12-08T08:32:47.398Z,48.50
2022-12-08T08:35:50.656Z,36.75
2022-12-08T08:38:53.610Z,29.67
2022-12-08T08:41:56.839Z,32.85
2022-12-08T08:44:59.822Z,32.55
2022-12-08T08:48:03.325Z,37.97
2022-12-08T08:51:11.458Z,27.30
2022-12-08T08:54:14.724Z,20.88
2022-12-08T08:57:23.632Z,18.77
2022-12-08T09:00:28.787Z,18.65
2022-12-08T09:03:31.838Z,21.95
2022-12-08T09:06:35.913Z,20.77
2022-12-08T09:09:39.607Z,19.35
2022-12-08T09:12:43.009Z,20.98
2022-12-08T09:15:46.428Z,25.15
2022-12-08T09:18:51.713Z,20.67
2022-12-08T09:21:55.309Z,20.75
2022-12-08T09:24:58.728Z,24.92
2022-12-08T09:28:04.173Z,23.77
2022-12-08T09:31:08.131Z,22.70
2022-12-08T09:34:12.458Z,23.85
2022-12-08T09:37:15.723Z,25.50
2022-12-08T09:40:21.225Z,23.80
2022-12-08T09:43:39.810Z,20.90
2022-12-08T09:46:44.849Z,21.42
2022-12-08T09:53:18.183Z,19.53
2022-12-08T09:56:30.123Z,21.55
2022-12-08T09:59:35.392Z,22.77
2022-12-08T10:02:40.069Z,20.00
2022-12-08T10:05:56.650Z,20.10
2022-12-08T10:09:21.166Z,24.00
2022-12-08T10:12:56.444Z,21.95
2022-12-08T10:16:36.448Z,23.10
2022-12-08T10:19:44.310Z,23.62
2022-12-08T10:22:52.409Z,22.58
2022-12-08T10:26:04.424Z,17.55
2022-12-08T10:29:12.187Z,17.08
2022-12-08T10:32:21.735Z,16.85
2022-12-08T10:35:25.652Z,17.37
2022-12-08T10:38:34.306Z,19.15
2022-12-08T10:41:37.213Z,17.90
2022-12-08T10:44:53.933Z,16.15
2022-12-08T10:48:02.783Z,17.80
2022-12-08T10:51:25.745Z,17.80
2022-12-08T10:54:33.681Z,15.75
2022-12-08T10:57:38.971Z,16.12
2022-12-08T11:00:42.039Z,19.12
2022-12-08T11:03:56.026Z,17.45
2022-12-08T11:06:59.474Z,15.55
2022-12-08T11:10:03.298Z,13.90
2022-12-08T11:13:07.731Z,13.07
2022-12-08T11:16:18.278Z,16.57
2022-12-08T11:19:22.816Z,18.10
2022-12-08T11:22:30.667Z,17.37
2022-12-08T11:25:34.167Z,16.23
2022-12-08T11:28:37.678Z,16.90
2022-12-08T11:31:57.502Z,16.73
2022-12-08T11:35:05.354Z,13.25
2022-12-08T11:38:21.559Z,13.82
2022-12-08T11:41:32.824Z,13.30
2022-12-08T11:44:45.261Z,16.15
2022-12-08T11:47:56.474Z,16.65
2022-12-08T11:51:13.804Z,18.12
2022-12-08T11:54:49.423Z,18.23
2022-12-08T11:57:52.360Z,16.30
2022-12-08T12:00:55.588Z,16.60
2022-12-08T12:04:21.978Z,17.05
2022-12-08T12:07:54.305Z,17.83
2022-12-08T12:11:09.588Z,15.82
2022-12-08T12:14:39.939Z,17.08
2022-12-08T12:18:01.082Z,17.33
2022-12-08T12:21:18.562Z,20.85
2022-12-08T12:24:32.812Z,16.58
2022-12-08T12:27:40.189Z,20.15
2022-12-08T12:31:03.419Z,19.52
2022-12-08T12:34:12.279Z,18.70
2022-12-08T12:37:19.369Z,18.10
2022-12-08T12:40:25.009Z,18.42
2022-12-08T12:43:34.053Z,19.87
2022-12-08T12:46:46.891Z,18.30
2022-12-08T12:49:52.009Z,21.73
2022-12-08T12:52:55.048Z,19.77
2022-12-08T12:56:03.721Z,20.33
2022-12-08T12:59:36.364Z,18.58
2022-12-08T13:02:50.026Z,18.70
2022-12-08T13:05:53.780Z,33.25
2022-12-08T13:08:57.517Z,22.15
2022-12-08T13:12:09.349Z,16.08
2022-12-08T13:15:20.343Z,18.48
2022-12-08T13:18:36.549Z,16.12
2022-12-08T13:21:40.218Z,17.85
2022-12-08T13:24:44.001Z,18.35
2022-12-08T13:27:54.536Z,19.27
2022-12-08T13:31:02.760Z,18.05
2022-12-08T13:34:08.602Z,17.08
2022-12-08T13:37:11.566Z,17.42
2022-12-08T13:40:19.594Z,20.70
2022-12-08T13:43:45.045Z,15.95
2022-12-08T13:47:25.073Z,17.15
2022-12-08T13:55:06.871Z,14.25
2022-12-08T13:57:34.273Z,16.15
2022-12-08T14:00:37.604Z,12.65
2022-12-08T14:07:19.989Z,10.35
2022-12-08T14:10:26.893Z,12.02
2022-12-08T14:13:31.548Z,16.98
2022-12-08T14:16:40.314Z,21.40
2022-12-08T14:19:45.309Z,13.45
2022-12-08T14:25:52.814Z,16.17
2022-12-08T14:28:56.383Z,17.65
2022-12-08T14:31:59.521Z,12.48
2022-12-08T14:35:08.988Z,12.20
2022-12-08T14:38:15.108Z,9.40
2022-12-08T14:41:25.882Z,12.02
2022-12-08T14:47:35.140Z,11.35
2022-12-08T14:50:39.702Z,12.50
2022-12-08T14:53:55.122Z,11.85
2022-12-08T14:56:58.352Z,13.85
2022-12-08T15:00:08.624Z,14.90
2022-12-08T15:03:12.855Z,12.02
2022-12-08T15:06:16.272Z,13.23
2022-12-08T15:09:41.112Z,14.05
2022-12-08T15:13:05.772Z,14.20
2022-12-08T15:16:39.027Z,14.80
2022-12-08T15:19:42.449Z,13.65
2022-12-08T15:22:45.667Z,12.45
2022-12-08T15:25:49.590Z,10.10
2022-12-08T15:28:53.758Z,9.20
2022-12-08T15:31:59.879Z,12.50
2022-12-08T15:35:03.074Z,14.82
2022-12-08T15:38:07.246Z,14.70
2022-12-08T15:41:14.559Z,12.82
2022-12-08T15:44:18.615Z,11.48
2022-12-08T15:47:23.862Z,13.80
2022-12-08T15:50:28.534Z,17.12
2022-12-08T15:53:31.618Z,17.15
2022-12-08T15:56:45.278Z,12.32
2022-12-08T15:59:59.369Z,11.88
2022-12-08T16:03:59.308Z,14.85
2022-12-08T16:09:51.621Z,14.82
2022-12-08T16:13:55.662Z,12.05
2022-12-08T16:16:37.116Z,16.30
2022-12-08T16:19:40.915Z,12.98
2022-12-08T16:22:56.412Z,14.10
2022-12-08T16:26:23.883Z,13.93
2022-12-08T16:29:30.121Z,12.23
2022-12-08T16:32:33.698Z,11.80
2022-12-08T16:35:36.980Z,11.55
2022-12-08T16:38:40.892Z,8.30
2022-12-08T16:42:02.554Z,9.60
2022-12-08T16:45:26.606Z,24.05
2022-12-08T16:48:30.508Z,20.75
2022-12-08T16:51:34.887Z,18.83
2022-12-08T16:54:44.253Z,26.77
2022-12-08T16:57:49.642Z,16.15
2022-12-08T17:00:54.414Z,11.55
2022-12-08T17:04:29.681Z,13.52
2022-12-08T17:07:25.566Z,10.50
2022-12-08T17:10:32.024Z,7.87
2022-12-08T17:13:41.590Z,7.37
2022-12-08T17:16:45.480Z,10.00
2022-12-08T17:19:48.891Z,20.60
2022-12-08T17:22:58.844Z,11.68
2022-12-08T17:26:02.474Z,9.82
2022-12-08T17:29:08.600Z,12.93
2022-12-08T17:32:15.006Z,12.25
2022-12-08T17:35:20.185Z,10.50
2022-12-08T17:38:27.707Z,8.77
2022-12-08T17:41:41.866Z,7.12
2022-12-08T17:44:46.935Z,10.52
2022-12-08T17:47:50.714Z,6.78
2022-12-08T17:51:02.707Z,20.45
2022-12-08T17:54:10.710Z,12.63
2022-12-08T17:57:14.263Z,11.27
2022-12-08T18:00:23.520Z,10.63
2022-12-08T18:03:29.122Z,14.02
2022-12-08T18:06:33.105Z,13.90
2022-12-08T18:09:37.063Z,13.10
2022-12-08T18:12:40.954Z,15.98
2022-12-08T18:15:47.767Z,13.45
2022-12-08T18:18:51.792Z,13.65
2022-12-08T18:21:59.759Z,15.30
2022-12-08T18:25:03.361Z,15.63
2022-12-08T18:28:07.496Z,15.60
2022-12-08T18:31:14.210Z,16.40
2022-12-08T18:34:19.644Z,13.65
2022-12-08T18:37:25.951Z,17.12
2022-12-08T18:40:35.001Z,16.90
2022-12-08T18:43:40.953Z,15.52
2022-12-08T18:46:46.307Z,10.60
2022-12-08T18:49:52.884Z,12.80
2022-12-08T18:52:57.371Z,16.80
2022-12-08T18:56:01.574Z,12.57
2022-12-08T18:59:11.783Z,17.47
2022-12-08T19:02:19.377Z,27.73
2022-12-08T19:05:34.125Z,14.95
2022-12-08T19:08:38.746Z,10.30
2022-12-08T19:11:57.803Z,11.00
2022-12-08T19:15:07.964Z,11.30
2022-12-08T19:18:19.708Z,12.88
2022-12-08T19:21:43.032Z,10.13
2022-12-08T19:25:00.027Z,10.60
2022-12-08T19:28:05.951Z,9.55
2022-12-08T19:31:13.276Z,11.85
2022-12-08T19:34:25.839Z,10.30
2022-12-08T19:37:40.329Z,10.32
2022-12-08T19:41:25.451Z,8.10
2022-12-08T19:44:54.659Z,10.63
2022-12-08T19:48:01.741Z,7.93
2022-12-08T19:51:13.882Z,8.77
2022-12-08T19:54:45.127Z,10.48
2022-12-08T19:58:25.366Z,13.60
2022-12-08T20:01:41.521Z,8.68
2022-12-08T20:04:50.075Z,9.68
2022-12-08T20:07:56.865Z,10.80
2022-12-08T20:11:17.406Z,7.78
2022-12-08T20:14:41.441Z,8.20
2022-12-08T20:17:58.231Z,11.40
2022-12-08T20:21:29.515Z,9.82
2022-12-08T20:24:54.344Z,11.38
2022-12-08T20:28:20.644Z,12.48
2022-12-08T20:31:46.398Z,11.30
2022-12-08T20:35:01.764Z,9.07
2022-12-08T20:38:07.845Z,11.45
2022-12-08T20:41:13.066Z,9.93
2022-12-08T20:44:22.634Z,9.35
2022-12-08T20:47:39.631Z,9.77
2022-12-08T20:50:46.685Z,9.98
2022-12-08T20:53:59.845Z,8.65
2022-12-08T20:57:09.125Z,13.48
2022-12-08T21:00:15.065Z,11.48
2022-12-08T21:03:42.307Z,12.05
2022-12-08T21:06:43.992Z,12.52
2022-12-08T21:10:08.828Z,11.40
2022-12-08T21:13:14.809Z,8.60
2022-12-08T21:16:22.089Z,9.55
2022-12-08T21:19:37.994Z,13.00
2022-12-08T21:22:44.991Z,13.27
2022-12-08T21:25:51.475Z,17.05
2022-12-08T21:28:55.096Z,12.27
2022-12-08T21:32:00.457Z,13.38
2022-12-08T21:35:03.999Z,12.45
2022-12-08T21:38:16.539Z,14.05
2022-12-08T21:41:40.882Z,15.55
2022-12-08T21:44:49.909Z,12.43
2022-12-08T21:47:53.441Z,13.40
2022-12-08T21:50:57.861Z,14.32
2022-12-08T21:54:02.667Z,13.70
2022-12-08T21:57:08.664Z,13.93
2022-12-08T22:00:17.835Z,13.82
2022-12-08T22:03:26.521Z,16.02
2022-12-08T22:06:30.757Z,15.40
2022-12-08T22:09:37.284Z,16.97
2022-12-08T22:12:46.708Z,17.70
2022-12-08T22:16:01.121Z,17.05
2022-12-08T22:19:04.399Z,16.98
2022-12-08T22:22:08.345Z,14.75
2022-12-08T22:25:12.679Z,21.73
2022-12-08T22:28:19.328Z,22.00
2022-12-08T22:31:25.044Z,13.70
2022-12-08T22:34:32.315Z,13.73
2022-12-08T22:37:35.800Z,16.15
2022-12-08T22:40:44.301Z,20.75
2022-12-08T22:43:50.806Z,13.73
2022-12-08T22:46:56.757Z,14.13
2022-12-08T22:50:49.192Z,16.15
2022-12-08T22:53:53.010Z,15.63
2022-12-08T22:57:01.919Z,13.93
2022-12-08T23:00:07.489Z,15.45
2022-12-08T23:03:15.704Z,14.98
2022-12-08T23:06:21.938Z,21.42
2022-12-08T23:09:28.505Z,19.33
2022-12-08T23:12:33.741Z,17.90
2022-12-08T23:15:38.534Z,19.57
2022-12-08T23:18:46.330Z,21.15
2022-12-08T23:21:49.768Z,25.60
2022-12-08T23:24:53.591Z,20.20
2022-12-08T23:27:57.958Z,20.75
2022-12-08T23:31:01.403Z,24.80
2022-12-08T23:34:05.080Z,24.00
2022-12-08T23:40:19.885Z,20.23
2022-12-08T23:43:26.239Z,28.25
2022-12-08T23:46:29.554Z,24.35
2022-12-08T23:49:33.621Z,24.17
2022-12-08T23:52:40.698Z,27.50
2022-12-08T23:55:44.859Z,24.33
2022-12-08T23:58:49.689Z,22.95
